sensor_id;sensor_type;location;lat;lon;timestamp;pressure;altitude;pressure_sealevel;temperature;humidity
4705;BME280;2366;51.332;6.610;2022-07-01T00:01:24;101350.31;;;18.18;79.14
4705;BME280;2366;51.332;6.610;2022-07-01T00:03:49;101346.09;;;18.04;78.84
4705;BME280;2366;51.332;6.610;2022-07-01T00:06:16;101343.56;;;18.02;79.35
4705;BME280;2366;51.332;6.610;2022-07-01T00:08:41;101330.47;;;18.09;79.58
4705;BME280;2366;51.332;6.610;2022-07-01T00:11:07;101324.50;;;18.05;79.10
4705;BME280;2366;51.332;6.610;2022-07-01T00:13:32;101328.75;;;18.08;78.60
4705;BME280;2366;51.332;6.610;2022-07-01T00:15:58;101337.19;;;18.03;78.72
4705;BME280;2366;51.332;6.610;2022-07-01T00:18:23;101334.50;;;18.03;78.82
4705;BME280;2366;51.332;6.610;2022-07-01T00:20:49;101325.50;;;18.04;78.62
4705;BME280;2366;51.332;6.610;2022-07-01T00:23:16;101330.16;;;18.02;78.64
4705;BME280;2366;51.332;6.610;2022-07-01T00:25:42;101339.88;;;18.03;78.53
4705;BME280;2366;51.332;6.610;2022-07-01T00:28:08;101352.31;;;18.04;78.32
4705;BME280;2366;51.332;6.610;2022-07-01T00:30:33;101346.97;;;18.04;78.45
4705;BME280;2366;51.332;6.610;2022-07-01T00:32:59;101339.88;;;18.03;78.30
4705;BME280;2366;51.332;6.610;2022-07-01T00:35:24;101351.34;;;18.05;78.45
4705;BME280;2366;51.332;6.610;2022-07-01T00:37:50;101355.75;;;18.06;78.18
4705;BME280;2366;51.332;6.610;2022-07-01T00:40:15;101353.78;;;18.09;77.82
4705;BME280;2366;51.332;6.610;2022-07-01T00:42:41;101354.75;;;18.08;78.01
4705;BME280;2366;51.332;6.610;2022-07-01T00:45:11;101348.16;;;18.12;77.50
4705;BME280;2366;51.332;6.610;2022-07-01T00:47:39;101349.97;;;18.11;77.54
4705;BME280;2366;51.332;6.610;2022-07-01T00:50:07;101362.91;;;18.17;77.75
4705;BME280;2366;51.332;6.610;2022-07-01T00:52:33;101372.78;;;18.05;77.04
4705;BME280;2366;51.332;6.610;2022-07-01T00:55:02;101381.63;;;17.96;77.62
4705;BME280;2366;51.332;6.610;2022-07-01T00:57:32;101371.38;;;17.90;77.97
4705;BME280;2366;51.332;6.610;2022-07-01T00:59:59;101380.16;;;17.92;78.29
4705;BME280;2366;51.332;6.610;2022-07-01T01:02:25;101375.06;;;17.89;78.19
4705;BME280;2366;51.332;6.610;2022-07-01T01:04:51;101386.75;;;17.88;78.30
4705;BME280;2366;51.332;6.610;2022-07-01T01:07:16;101381.25;;;17.90;78.38
4705;BME280;2366;51.332;6.610;2022-07-01T01:09:42;101380.41;;;17.89;77.84
4705;BME280;2366;51.332;6.610;2022-07-01T01:12:07;101376.84;;;17.89;77.83
4705;BME280;2366;51.332;6.610;2022-07-01T01:14:46;101392.84;;;17.90;78.02
4705;BME280;2366;51.332;6.610;2022-07-01T01:17:13;101383.28;;;17.97;77.62
4705;BME280;2366;51.332;6.610;2022-07-01T01:19:39;101394.03;;;17.97;77.54
4705;BME280;2366;51.332;6.610;2022-07-01T01:22:05;101390.16;;;17.90;77.47
4705;BME280;2366;51.332;6.610;2022-07-01T01:24:30;101398.59;;;17.85;77.43
4705;BME280;2366;51.332;6.610;2022-07-01T01:26:56;101408.19;;;17.88;77.27
4705;BME280;2366;51.332;6.610;2022-07-01T01:29:21;101414.66;;;17.85;77.38
4705;BME280;2366;51.332;6.610;2022-07-01T01:31:46;101417.81;;;17.79;77.67
4705;BME280;2366;51.332;6.610;2022-07-01T01:34:12;101415.00;;;17.81;77.98
4705;BME280;2366;51.332;6.610;2022-07-01T01:36:38;101409.03;;;17.77;78.21
4705;BME280;2366;51.332;6.610;2022-07-01T01:39:03;101410.50;;;17.81;78.23
4705;BME280;2366;51.332;6.610;2022-07-01T01:41:47;101416.13;;;17.78;77.93
4705;BME280;2366;51.332;6.610;2022-07-01T01:44:13;101426.22;;;17.75;78.08
4705;BME280;2366;51.332;6.610;2022-07-01T01:46:38;101422.09;;;17.71;78.36
4705;BME280;2366;51.332;6.610;2022-07-01T01:49:05;101425.50;;;17.73;78.60
4705;BME280;2366;51.332;6.610;2022-07-01T01:51:31;101418.56;;;17.70;78.37
4705;BME280;2366;51.332;6.610;2022-07-01T01:53:56;101410.00;;;17.65;78.01
4705;BME280;2366;51.332;6.610;2022-07-01T01:56:23;101411.13;;;17.62;78.78
4705;BME280;2366;51.332;6.610;2022-07-01T01:58:48;101395.78;;;17.53;78.78
4705;BME280;2366;51.332;6.610;2022-07-01T02:01:16;101396.50;;;17.55;79.06
4705;BME280;2366;51.332;6.610;2022-07-01T02:03:43;101410.75;;;17.44;79.00
4705;BME280;2366;51.332;6.610;2022-07-01T02:06:10;101425.50;;;17.39;79.01
4705;BME280;2366;51.332;6.610;2022-07-01T02:08:37;101426.22;;;17.41;79.94
4705;BME280;2366;51.332;6.610;2022-07-01T02:11:03;101422.09;;;17.37;79.70
4705;BME280;2366;51.332;6.610;2022-07-01T02:13:28;101417.72;;;17.24;80.18
4705;BME280;2366;51.332;6.610;2022-07-01T02:15:54;101423.19;;;17.23;80.63
4705;BME280;2366;51.332;6.610;2022-07-01T02:18:20;101427.59;;;17.24;80.96
4705;BME280;2366;51.332;6.610;2022-07-01T02:20:45;101427.94;;;17.31;81.19
4705;BME280;2366;51.332;6.610;2022-07-01T02:23:11;101428.31;;;17.37;81.34
4705;BME280;2366;51.332;6.610;2022-07-01T02:25:37;101431.38;;;17.33;79.77
4705;BME280;2366;51.332;6.610;2022-07-01T02:28:03;101430.63;;;17.31;81.54
4705;BME280;2366;51.332;6.610;2022-07-01T02:30:29;101439.88;;;17.38;81.27
4705;BME280;2366;51.332;6.610;2022-07-01T02:32:56;101439.88;;;17.38;81.57
4705;BME280;2366;51.332;6.610;2022-07-01T02:35:21;101442.81;;;17.46;81.56
4705;BME280;2366;51.332;6.610;2022-07-01T02:37:46;101452.19;;;17.52;81.84
4705;BME280;2366;51.332;6.610;2022-07-01T02:40:12;101459.13;;;17.54;81.62
4705;BME280;2366;51.332;6.610;2022-07-01T02:42:38;101462.44;;;17.58;81.38
4705;BME280;2366;51.332;6.610;2022-07-01T02:45:05;101457.06;;;17.58;81.48
4705;BME280;2366;51.332;6.610;2022-07-01T02:47:36;101450.38;;;17.63;81.58
4705;BME280;2366;51.332;6.610;2022-07-01T02:50:06;101456.69;;;17.51;80.66
4705;BME280;2366;51.332;6.610;2022-07-01T02:52:32;101459.63;;;17.48;81.03
4705;BME280;2366;51.332;6.610;2022-07-01T02:54:59;101462.31;;;17.48;81.60
4705;BME280;2366;51.332;6.610;2022-07-01T02:57:25;101479.00;;;17.52;81.54
4705;BME280;2366;51.332;6.610;2022-07-01T02:59:51;101485.34;;;17.51;81.61
4705;BME280;2366;51.332;6.610;2022-07-01T03:02:17;101483.41;;;17.53;81.82
4705;BME280;2366;51.332;6.610;2022-07-01T03:04:43;101487.19;;;17.50;81.02
4705;BME280;2366;51.332;6.610;2022-07-01T03:07:08;101493.97;;;17.54;81.65
4705;BME280;2366;51.332;6.610;2022-07-01T03:09:34;101493.38;;;17.51;81.58
4705;BME280;2366;51.332;6.610;2022-07-01T03:12:00;101495.69;;;17.55;81.99
4705;BME280;2366;51.332;6.610;2022-07-01T03:14:45;101493.28;;;17.52;81.46
4705;BME280;2366;51.332;6.610;2022-07-01T03:17:11;101491.06;;;17.46;81.52
4705;BME280;2366;51.332;6.610;2022-07-01T03:19:36;101493.47;;;17.38;80.83
4705;BME280;2366;51.332;6.610;2022-07-01T03:22:01;101498.72;;;17.39;81.99
4705;BME280;2366;51.332;6.610;2022-07-01T03:24:27;101503.34;;;17.37;81.98
4705;BME280;2366;51.332;6.610;2022-07-01T03:26:52;101512.59;;;17.33;81.90
4705;BME280;2366;51.332;6.610;2022-07-01T03:29:18;101514.53;;;17.31;81.14
4705;BME280;2366;51.332;6.610;2022-07-01T03:31:43;101522.97;;;17.38;81.89
4705;BME280;2366;51.332;6.610;2022-07-01T03:34:08;101523.44;;;17.43;82.37
4705;BME280;2366;51.332;6.610;2022-07-01T03:36:34;101531.66;;;17.53;82.43
4705;BME280;2366;51.332;6.610;2022-07-01T03:39:01;101519.34;;;17.61;82.84
4705;BME280;2366;51.332;6.610;2022-07-01T03:41:28;101510.22;;;17.64;82.23
4705;BME280;2366;51.332;6.610;2022-07-01T03:43:54;101504.22;;;17.60;81.28
4705;BME280;2366;51.332;6.610;2022-07-01T03:46:19;101502.41;;;17.61;81.48
4705;BME280;2366;51.332;6.610;2022-07-01T03:48:44;101499.72;;;17.61;82.34
4705;BME280;2366;51.332;6.610;2022-07-01T03:51:10;101493.75;;;17.57;81.96
4705;BME280;2366;51.332;6.610;2022-07-01T03:53:35;101509.84;;;17.57;82.59
4705;BME280;2366;51.332;6.610;2022-07-01T03:56:19;101513.09;;;17.50;82.54
4705;BME280;2366;51.332;6.610;2022-07-01T03:58:44;101511.03;;;17.53;81.87
4705;BME280;2366;51.332;6.610;2022-07-01T04:01:10;101515.19;;;17.57;82.76
4705;BME280;2366;51.332;6.610;2022-07-01T04:03:35;101520.78;;;17.54;82.40
4705;BME280;2366;51.332;6.610;2022-07-01T04:06:00;101520.09;;;17.63;82.94
4705;BME280;2366;51.332;6.610;2022-07-01T04:08:26;101527.13;;;17.64;81.67
4705;BME280;2366;51.332;6.610;2022-07-01T04:10:51;101528.13;;;17.63;82.35
4705;BME280;2366;51.332;6.610;2022-07-01T04:13:18;101533.13;;;17.57;82.54
4705;BME280;2366;51.332;6.610;2022-07-01T04:15:44;101534.69;;;17.59;82.77
4705;BME280;2366;51.332;6.610;2022-07-01T04:18:10;101530.81;;;17.63;82.74
4705;BME280;2366;51.332;6.610;2022-07-01T04:20:35;101533.25;;;17.78;83.11
4705;BME280;2366;51.332;6.610;2022-07-01T04:23:01;101525.94;;;17.80;82.81
4705;BME280;2366;51.332;6.610;2022-07-01T04:25:26;101518.88;;;17.79;82.24
4705;BME280;2366;51.332;6.610;2022-07-01T04:27:55;101519.97;;;17.76;82.09
4705;BME280;2366;51.332;6.610;2022-07-01T04:30:21;101515.94;;;17.71;81.73
4705;BME280;2366;51.332;6.610;2022-07-01T04:32:46;101518.63;;;17.71;82.61
4705;BME280;2366;51.332;6.610;2022-07-01T04:35:12;101522.75;;;17.75;82.08
4705;BME280;2366;51.332;6.610;2022-07-01T04:37:39;101527.66;;;17.81;82.58
4705;BME280;2366;51.332;6.610;2022-07-01T04:40:06;101513.78;;;17.87;81.66
4705;BME280;2366;51.332;6.610;2022-07-01T04:42:31;101517.88;;;17.80;82.01
4705;BME280;2366;51.332;6.610;2022-07-01T04:44:56;101519.50;;;17.82;81.98
4705;BME280;2366;51.332;6.610;2022-07-01T04:47:22;101515.59;;;17.86;82.14
4705;BME280;2366;51.332;6.610;2022-07-01T04:49:48;101518.41;;;17.85;82.07
4705;BME280;2366;51.332;6.610;2022-07-01T04:52:14;101508.75;;;17.82;81.96
4705;BME280;2366;51.332;6.610;2022-07-01T04:54:40;101513.28;;;17.82;82.18
4705;BME280;2366;51.332;6.610;2022-07-01T04:57:06;101513.06;;;17.85;82.39
4705;BME280;2366;51.332;6.610;2022-07-01T04:59:32;101517.53;;;17.84;81.69
4705;BME280;2366;51.332;6.610;2022-07-01T05:01:57;101521.22;;;17.95;81.91
4705;BME280;2366;51.332;6.610;2022-07-01T05:04:24;101521.56;;;18.01;81.99
4705;BME280;2366;51.332;6.610;2022-07-01T05:06:51;101516.22;;;17.90;81.19
4705;BME280;2366;51.332;6.610;2022-07-01T05:09:17;101510.13;;;17.88;81.25
4705;BME280;2366;51.332;6.610;2022-07-01T05:11:44;101508.44;;;17.87;80.11
4705;BME280;2366;51.332;6.610;2022-07-01T05:14:10;101508.53;;;17.97;80.78
4705;BME280;2366;51.332;6.610;2022-07-01T05:16:35;101509.50;;;18.07;80.77
4705;BME280;2366;51.332;6.610;2022-07-01T05:19:02;101514.75;;;18.09;80.02
4705;BME280;2366;51.332;6.610;2022-07-01T05:21:46;101499.63;;;17.96;78.86
4705;BME280;2366;51.332;6.610;2022-07-01T05:24:21;101504.28;;;17.94;78.83
4705;BME280;2366;51.332;6.610;2022-07-01T05:26:47;101495.47;;;18.03;79.15
4705;BME280;2366;51.332;6.610;2022-07-01T05:29:13;101498.66;;;18.09;78.75
4705;BME280;2366;51.332;6.610;2022-07-01T05:31:38;101503.03;;;18.10;78.54
4705;BME280;2366;51.332;6.610;2022-07-01T05:34:04;101504.84;;;18.20;78.49
4705;BME280;2366;51.332;6.610;2022-07-01T05:36:29;101500.28;;;18.32;77.86
4705;BME280;2366;51.332;6.610;2022-07-01T05:38:55;101512.59;;;18.46;77.33
4705;BME280;2366;51.332;6.610;2022-07-01T05:41:20;101515.25;;;18.57;76.67
4705;BME280;2366;51.332;6.610;2022-07-01T05:43:45;101515.72;;;18.62;75.37
4705;BME280;2366;51.332;6.610;2022-07-01T05:46:11;101515.09;;;18.70;75.34
4705;BME280;2366;51.332;6.610;2022-07-01T05:48:36;101522.13;;;18.94;74.80
4705;BME280;2366;51.332;6.610;2022-07-01T05:51:02;101526.03;;;18.90;73.34
4705;BME280;2366;51.332;6.610;2022-07-01T05:53:28;101523.16;;;19.02;73.51
4705;BME280;2366;51.332;6.610;2022-07-01T05:55:53;101521.75;;;19.19;73.32
4705;BME280;2366;51.332;6.610;2022-07-01T05:58:18;101525.53;;;19.38;72.64
4705;BME280;2366;51.332;6.610;2022-07-01T06:00:44;101534.44;;;19.59;71.28
4705;BME280;2366;51.332;6.610;2022-07-01T06:03:10;101529.72;;;19.73;71.15
4705;BME280;2366;51.332;6.610;2022-07-01T06:05:36;101527.41;;;19.89;70.28
4705;BME280;2366;51.332;6.610;2022-07-01T06:08:02;101526.69;;;19.87;69.04
4705;BME280;2366;51.332;6.610;2022-07-01T06:10:28;101519.31;;;19.89;68.98
4705;BME280;2366;51.332;6.610;2022-07-01T06:12:54;101520.47;;;19.96;68.33
4705;BME280;2366;51.332;6.610;2022-07-01T06:15:19;101526.47;;;20.00;68.13
4705;BME280;2366;51.332;6.610;2022-07-01T06:17:45;101537.66;;;20.05;67.63
4705;BME280;2366;51.332;6.610;2022-07-01T06:20:10;101539.75;;;20.01;67.20
4705;BME280;2366;51.332;6.610;2022-07-01T06:22:36;101539.03;;;19.99;67.09
4705;BME280;2366;51.332;6.610;2022-07-01T06:25:02;101529.00;;;20.01;66.62
4705;BME280;2366;51.332;6.610;2022-07-01T06:27:28;101529.69;;;19.94;66.37
4705;BME280;2366;51.332;6.610;2022-07-01T06:29:53;101539.84;;;19.90;65.95
4705;BME280;2366;51.332;6.610;2022-07-01T06:32:19;101552.16;;;19.83;67.25
4705;BME280;2366;51.332;6.610;2022-07-01T06:34:44;101554.38;;;19.78;67.34
4705;BME280;2366;51.332;6.610;2022-07-01T06:37:10;101564.47;;;19.64;67.30
4705;BME280;2366;51.332;6.610;2022-07-01T06:39:35;101567.88;;;19.66;67.50
4705;BME280;2366;51.332;6.610;2022-07-01T06:42:01;101571.78;;;19.74;66.79
4705;BME280;2366;51.332;6.610;2022-07-01T06:44:26;101574.28;;;19.86;66.96
4705;BME280;2366;51.332;6.610;2022-07-01T06:46:51;101575.34;;;19.84;66.11
4705;BME280;2366;51.332;6.610;2022-07-01T06:49:17;101558.19;;;20.06;66.50
4705;BME280;2366;51.332;6.610;2022-07-01T06:51:43;101564.50;;;20.26;65.79
4705;BME280;2366;51.332;6.610;2022-07-01T06:54:08;101568.94;;;20.46;64.79
4705;BME280;2366;51.332;6.610;2022-07-01T06:56:34;101579.00;;;20.44;63.63
4705;BME280;2366;51.332;6.610;2022-07-01T06:58:59;101583.47;;;20.15;64.54
4705;BME280;2366;51.332;6.610;2022-07-01T07:01:25;101587.78;;;20.37;64.88
4705;BME280;2366;51.332;6.610;2022-07-01T07:03:50;101590.44;;;20.77;64.04
4705;BME280;2366;51.332;6.610;2022-07-01T07:06:16;101589.91;;;21.03;63.13
4705;BME280;2366;51.332;6.610;2022-07-01T07:08:41;101596.56;;;21.18;61.98
4705;BME280;2366;51.332;6.610;2022-07-01T07:11:07;101603.81;;;21.47;61.23
4705;BME280;2366;51.332;6.610;2022-07-01T07:13:35;101608.78;;;21.61;61.06
4705;BME280;2366;51.332;6.610;2022-07-01T07:16:01;101615.53;;;21.75;61.17
4705;BME280;2366;51.332;6.610;2022-07-01T07:18:26;101607.19;;;21.78;60.21
4705;BME280;2366;51.332;6.610;2022-07-01T07:20:51;101617.78;;;21.89;59.93
4705;BME280;2366;51.332;6.610;2022-07-01T07:23:17;101610.19;;;22.12;58.63
4705;BME280;2366;51.332;6.610;2022-07-01T07:25:42;101610.94;;;22.05;57.96
4705;BME280;2366;51.332;6.610;2022-07-01T07:28:08;101596.00;;;22.10;57.48
4705;BME280;2366;51.332;6.610;2022-07-01T07:30:33;101591.41;;;22.76;57.37
4705;BME280;2366;51.332;6.610;2022-07-01T07:32:58;101590.38;;;22.59;56.16
4705;BME280;2366;51.332;6.610;2022-07-01T07:35:24;101598.38;;;22.51;56.38
4705;BME280;2366;51.332;6.610;2022-07-01T07:37:49;101602.22;;;22.21;56.65
4705;BME280;2366;51.332;6.610;2022-07-01T07:40:15;101589.25;;;21.87;57.55
4705;BME280;2366;51.332;6.610;2022-07-01T07:42:44;101602.75;;;21.87;58.39
4705;BME280;2366;51.332;6.610;2022-07-01T07:45:10;101600.09;;;21.67;58.37
4705;BME280;2366;51.332;6.610;2022-07-01T07:47:37;101606.34;;;21.29;59.25
4705;BME280;2366;51.332;6.610;2022-07-01T07:50:03;101604.34;;;21.80;59.97
4705;BME280;2366;51.332;6.610;2022-07-01T07:52:30;101613.69;;;23.06;57.36
4705;BME280;2366;51.332;6.610;2022-07-01T07:54:55;101618.97;;;25.23;52.49
4705;BME280;2366;51.332;6.610;2022-07-01T07:57:21;101625.88;;;25.91;45.57
4705;BME280;2366;51.332;6.610;2022-07-01T07:59:46;101626.31;;;26.19;45.71
4705;BME280;2366;51.332;6.610;2022-07-01T08:02:12;101633.88;;;25.68;46.18
4705;BME280;2366;51.332;6.610;2022-07-01T08:04:38;101617.72;;;25.17;48.28
4705;BME280;2366;51.332;6.610;2022-07-01T08:07:03;101626.84;;;24.84;48.72
4705;BME280;2366;51.332;6.610;2022-07-01T08:09:29;101624.72;;;24.18;50.23
4705;BME280;2366;51.332;6.610;2022-07-01T08:11:54;101626.53;;;23.66;51.81
4705;BME280;2366;51.332;6.610;2022-07-01T08:14:20;101627.16;;;24.80;50.33
4705;BME280;2366;51.332;6.610;2022-07-01T08:16:45;101642.59;;;26.28;47.70
4705;BME280;2366;51.332;6.610;2022-07-01T08:19:11;101643.38;;;26.84;44.83
4705;BME280;2366;51.332;6.610;2022-07-01T08:21:36;101648.78;;;27.61;45.65
4705;BME280;2366;51.332;6.610;2022-07-01T08:24:02;101642.72;;;29.36;40.04
4705;BME280;2366;51.332;6.610;2022-07-01T08:26:28;101639.25;;;29.49;39.82
4705;BME280;2366;51.332;6.610;2022-07-01T08:28:53;101637.06;;;28.29;39.72
4705;BME280;2366;51.332;6.610;2022-07-01T08:31:19;101645.09;;;28.66;40.12
4705;BME280;2366;51.332;6.610;2022-07-01T08:33:44;101642.63;;;28.86;39.63
4705;BME280;2366;51.332;6.610;2022-07-01T08:36:09;101634.69;;;27.12;41.70
4705;BME280;2366;51.332;6.610;2022-07-01T08:38:36;101637.91;;;26.05;43.46
4705;BME280;2366;51.332;6.610;2022-07-01T08:41:02;101647.56;;;27.26;42.54
4705;BME280;2366;51.332;6.610;2022-07-01T08:43:29;101650.78;;;28.50;39.23
4705;BME280;2366;51.332;6.610;2022-07-01T08:45:54;101637.88;;;28.14;39.32
4705;BME280;2366;51.332;6.610;2022-07-01T08:48:20;101650.50;;;27.77;40.78
4705;BME280;2366;51.332;6.610;2022-07-01T08:50:46;101651.56;;;27.07;41.25
4705;BME280;2366;51.332;6.610;2022-07-01T08:53:12;101649.88;;;26.35;42.59
4705;BME280;2366;51.332;6.610;2022-07-01T08:55:39;101651.81;;;27.66;41.58
4705;BME280;2366;51.332;6.610;2022-07-01T08:58:25;101656.56;;;29.56;37.82
4705;BME280;2366;51.332;6.610;2022-07-01T09:00:51;101655.63;;;28.70;37.69
4705;BME280;2366;51.332;6.610;2022-07-01T09:03:20;101655.13;;;27.77;38.88
4705;BME280;2366;51.332;6.610;2022-07-01T09:05:49;101664.59;;;26.89;41.08
4705;BME280;2366;51.332;6.610;2022-07-01T09:08:15;101666.38;;;26.26;42.70
4705;BME280;2366;51.332;6.610;2022-07-01T09:10:40;101669.78;;;26.19;42.09
4705;BME280;2366;51.332;6.610;2022-07-01T09:13:11;101670.56;;;26.44;39.86
4705;BME280;2366;51.332;6.610;2022-07-01T09:15:38;101670.34;;;26.62;39.98
4705;BME280;2366;51.332;6.610;2022-07-01T09:18:13;101657.78;;;26.53;40.13
4705;BME280;2366;51.332;6.610;2022-07-01T09:20:41;101671.00;;;26.64;40.67
4705;BME280;2366;51.332;6.610;2022-07-01T09:23:18;101670.56;;;26.84;38.73
4705;BME280;2366;51.332;6.610;2022-07-01T09:25:45;101663.94;;;26.39;41.17
4705;BME280;2366;51.332;6.610;2022-07-01T09:28:18;101666.94;;;26.52;40.27
4705;BME280;2366;51.332;6.610;2022-07-01T09:30:47;101674.25;;;26.60;40.60
4705;BME280;2366;51.332;6.610;2022-07-01T09:33:21;101683.50;;;26.82;38.52
4705;BME280;2366;51.332;6.610;2022-07-01T09:35:47;101675.84;;;26.38;39.17
4705;BME280;2366;51.332;6.610;2022-07-01T09:38:20;101680.56;;;25.88;40.69
4705;BME280;2366;51.332;6.610;2022-07-01T09:40:54;101676.25;;;26.10;40.95
4705;BME280;2366;51.332;6.610;2022-07-01T09:43:23;101677.59;;;26.22;40.42
4705;BME280;2366;51.332;6.610;2022-07-01T09:45:54;101664.06;;;26.54;39.68
4705;BME280;2366;51.332;6.610;2022-07-01T09:48:23;101672.91;;;27.27;39.64
4705;BME280;2366;51.332;6.610;2022-07-01T09:50:49;101680.72;;;28.05;37.11
4705;BME280;2366;51.332;6.610;2022-07-01T09:53:15;101676.41;;;27.04;38.75
4705;BME280;2366;51.332;6.610;2022-07-01T09:55:41;101678.16;;;25.85;39.96
4705;BME280;2366;51.332;6.610;2022-07-01T09:58:06;101675.59;;;25.34;40.99
4705;BME280;2366;51.332;6.610;2022-07-01T10:00:32;101675.19;;;25.13;41.75
4705;BME280;2366;51.332;6.610;2022-07-01T10:03:00;101677.34;;;24.85;41.58
4705;BME280;2366;51.332;6.610;2022-07-01T10:05:27;101682.28;;;24.97;41.78
4705;BME280;2366;51.332;6.610;2022-07-01T10:08:10;101683.75;;;25.51;40.28
4705;BME280;2366;51.332;6.610;2022-07-01T10:11:06;101677.31;;;25.93;40.61
4705;BME280;2366;51.332;6.610;2022-07-01T10:13:41;101681.03;;;26.64;39.22
4705;BME280;2366;51.332;6.610;2022-07-01T10:16:08;101681.44;;;26.44;39.00
4705;BME280;2366;51.332;6.610;2022-07-01T10:18:34;101685.88;;;26.37;39.43
4705;BME280;2366;51.332;6.610;2022-07-01T10:21:00;101688.13;;;26.73;38.24
4705;BME280;2366;51.332;6.610;2022-07-01T10:23:38;101681.16;;;26.79;37.37
4705;BME280;2366;51.332;6.610;2022-07-01T10:26:05;101671.44;;;27.39;36.74
4705;BME280;2366;51.332;6.610;2022-07-01T10:31:09;101677.53;;;27.64;36.99
4705;BME280;2366;51.332;6.610;2022-07-01T10:44:19;101680.78;;;27.13;36.50
4705;BME280;2366;51.332;6.610;2022-07-01T10:46:51;101681.22;;;26.62;38.00
4705;BME280;2366;51.332;6.610;2022-07-01T10:54:54;101669.69;;;25.88;38.19
4705;BME280;2366;51.332;6.610;2022-07-01T10:57:41;101666.44;;;26.01;39.22
4705;BME280;2366;51.332;6.610;2022-07-01T11:02:33;101667.88;;;26.36;38.46
4705;BME280;2366;51.332;6.610;2022-07-01T11:05:04;101663.91;;;26.63;37.78
4705;BME280;2366;51.332;6.610;2022-07-01T11:07:31;101664.31;;;26.36;38.35
4705;BME280;2366;51.332;6.610;2022-07-01T11:09:57;101656.59;;;26.00;36.94
4705;BME280;2366;51.332;6.610;2022-07-01T11:12:24;101660.19;;;25.68;38.17
4705;BME280;2366;51.332;6.610;2022-07-01T11:14:50;101659.97;;;26.02;37.03
4705;BME280;2366;51.332;6.610;2022-07-01T11:17:16;101654.78;;;26.40;37.95
4705;BME280;2366;51.332;6.610;2022-07-01T11:19:51;101659.94;;;26.97;37.07
4705;BME280;2366;51.332;6.610;2022-07-01T11:22:22;101666.88;;;26.77;36.35
4705;BME280;2366;51.332;6.610;2022-07-01T11:24:59;101661.47;;;26.13;35.95
4705;BME280;2366;51.332;6.610;2022-07-01T11:27:26;101662.19;;;25.74;37.70
4705;BME280;2366;51.332;6.610;2022-07-01T11:30:03;101654.03;;;25.82;37.00
4705;BME280;2366;51.332;6.610;2022-07-01T11:32:31;101653.41;;;25.64;37.64
4705;BME280;2366;51.332;6.610;2022-07-01T11:34:58;101647.44;;;25.93;38.73
4705;BME280;2366;51.332;6.610;2022-07-01T11:37:30;101648.03;;;26.19;37.53
4705;BME280;2366;51.332;6.610;2022-07-01T11:40:17;101656.59;;;26.56;36.92
4705;BME280;2366;51.332;6.610;2022-07-01T11:42:43;101647.41;;;26.96;35.63
4705;BME280;2366;51.332;6.610;2022-07-01T11:45:21;101643.16;;;27.17;34.16
4705;BME280;2366;51.332;6.610;2022-07-01T11:47:47;101647.31;;;27.36;33.26
4705;BME280;2366;51.332;6.610;2022-07-01T11:50:13;101649.69;;;27.54;34.11
4705;BME280;2366;51.332;6.610;2022-07-01T11:52:41;101647.84;;;27.69;33.37
4705;BME280;2366;51.332;6.610;2022-07-01T11:55:07;101645.22;;;27.15;33.00
4705;BME280;2366;51.332;6.610;2022-07-01T11:57:32;101641.63;;;26.91;33.87
4705;BME280;2366;51.332;6.610;2022-07-01T12:00:11;101650.78;;;26.98;33.34
4705;BME280;2366;51.332;6.610;2022-07-01T12:02:37;101636.13;;;26.99;32.51
4705;BME280;2366;51.332;6.610;2022-07-01T12:05:03;101642.03;;;27.11;32.69
4705;BME280;2366;51.332;6.610;2022-07-01T12:07:29;101635.19;;;27.15;32.72
4705;BME280;2366;51.332;6.610;2022-07-01T12:09:56;101638.75;;;26.61;34.23
4705;BME280;2366;51.332;6.610;2022-07-01T12:12:23;101640.25;;;26.95;33.83
4705;BME280;2366;51.332;6.610;2022-07-01T12:14:55;101644.75;;;27.11;34.24
4705;BME280;2366;51.332;6.610;2022-07-01T12:17:21;101643.16;;;27.63;34.76
4705;BME280;2366;51.332;6.610;2022-07-01T12:19:48;101644.50;;;27.82;33.22
4705;BME280;2366;51.332;6.610;2022-07-01T12:22:18;101657.28;;;27.81;33.17
4705;BME280;2366;51.332;6.610;2022-07-01T12:24:45;101649.25;;;27.27;33.89
4705;BME280;2366;51.332;6.610;2022-07-01T12:27:11;101647.25;;;26.90;33.61
4705;BME280;2366;51.332;6.610;2022-07-01T12:32:10;101640.63;;;26.92;33.94
4705;BME280;2366;51.332;6.610;2022-07-01T12:34:41;101645.78;;;26.79;34.46
4705;BME280;2366;51.332;6.610;2022-07-01T12:37:17;101646.19;;;26.68;35.59
4705;BME280;2366;51.332;6.610;2022-07-01T12:39:52;101655.13;;;26.37;35.58
4705;BME280;2366;51.332;6.610;2022-07-01T12:45:00;101660.47;;;26.22;35.85
4705;BME280;2366;51.332;6.610;2022-07-01T12:47:49;101662.94;;;26.40;35.35
4705;BME280;2366;51.332;6.610;2022-07-01T12:50:18;101656.56;;;26.95;34.20
4705;BME280;2366;51.332;6.610;2022-07-01T12:53:12;101652.13;;;27.02;33.16
4705;BME280;2366;51.332;6.610;2022-07-01T12:55:38;101660.16;;;26.96;33.54
4705;BME280;2366;51.332;6.610;2022-07-01T12:58:06;101662.38;;;26.92;32.27
4705;BME280;2366;51.332;6.610;2022-07-01T13:00:33;101665.84;;;26.78;33.66
4705;BME280;2366;51.332;6.610;2022-07-01T13:03:02;101660.66;;;26.91;33.98
4705;BME280;2366;51.332;6.610;2022-07-01T13:05:29;101658.81;;;27.15;34.83
4705;BME280;2366;51.332;6.610;2022-07-01T13:07:54;101657.69;;;26.78;34.29
4705;BME280;2366;51.332;6.610;2022-07-01T13:10:21;101647.69;;;26.31;34.04
4705;BME280;2366;51.332;6.610;2022-07-01T13:12:47;101651.00;;;26.49;34.73
4705;BME280;2366;51.332;6.610;2022-07-01T13:15:14;101645.34;;;26.67;34.62
4705;BME280;2366;51.332;6.610;2022-07-01T13:17:39;101649.91;;;26.75;33.97
4705;BME280;2366;51.332;6.610;2022-07-01T13:20:06;101656.28;;;26.59;35.08
4705;BME280;2366;51.332;6.610;2022-07-01T13:22:32;101655.31;;;26.35;34.54
4705;BME280;2366;51.332;6.610;2022-07-01T13:24:58;101660.25;;;26.23;35.65
4705;BME280;2366;51.332;6.610;2022-07-01T13:27:24;101661.59;;;26.36;35.83
4705;BME280;2366;51.332;6.610;2022-07-01T13:29:50;101667.03;;;26.36;35.42
4705;BME280;2366;51.332;6.610;2022-07-01T13:32:16;101666.53;;;26.32;35.08
4705;BME280;2366;51.332;6.610;2022-07-01T13:34:41;101671.19;;;26.07;35.41
4705;BME280;2366;51.332;6.610;2022-07-01T13:37:07;101677.22;;;26.34;36.07